createdAt,value
2019-03-15T13:40:09.546Z,934.99
2019-03-15T13:41:09.539Z,934.96
2019-03-15T13:42:09.527Z,935.01
2019-03-15T13:43:09.524Z,934.97
2019-03-15T13:44:09.502Z,934.99
2019-03-15T13:45:09.520Z,934.89
2019-03-15T13:46:09.498Z,934.91
2019-03-15T13:47:09.541Z,934.95
2019-03-15T13:48:09.497Z,934.92
2019-03-15T13:49:09.478Z,934.91
2019-03-15T13:50:09.465Z,934.95
2019-03-15T13:51:09.454Z,934.93
2019-03-15T13:52:09.455Z,934.91
2019-03-15T13:53:09.436Z,934.94
2019-03-15T13:54:09.455Z,934.87
2019-03-15T13:55:09.452Z,934.90
2019-03-15T13:56:09.446Z,934.94
2019-03-15T13:57:20.619Z,934.89
2019-03-15T13:58:09.434Z,934.86
2019-03-15T13:59:09.413Z,934.85
2019-03-15T14:00:09.424Z,934.85
2019-03-15T14:01:09.429Z,934.82
2019-03-15T14:02:09.417Z,934.84
2019-03-15T14:03:09.450Z,934.85
2019-03-15T14:04:09.402Z,934.78
2019-03-15T14:05:09.426Z,934.78
2019-03-15T14:06:09.389Z,934.76
2019-03-15T14:07:09.400Z,934.74
2019-03-15T14:08:12.070Z,934.73
2019-03-15T14:09:09.394Z,934.71
2019-03-15T14:10:09.394Z,934.71
2019-03-15T14:11:09.376Z,934.73
2019-03-15T14:12:09.388Z,934.71
2019-03-15T14:13:11.825Z,934.66
2019-03-15T14:14:09.385Z,934.67
2019-03-15T14:15:09.363Z,934.68
2019-03-15T14:16:09.361Z,934.64
2019-03-15T14:17:09.359Z,934.66
2019-03-15T14:18:09.334Z,934.59
2019-03-15T14:19:09.357Z,934.60
2019-03-15T14:20:09.347Z,934.63
2019-03-15T14:21:09.337Z,934.58
2019-03-15T14:22:09.335Z,934.59
2019-03-15T14:23:09.335Z,934.57
2019-03-15T14:24:09.348Z,934.57
2019-03-15T14:25:09.332Z,934.58
2019-03-15T14:26:09.348Z,934.58
2019-03-15T14:27:09.326Z,934.52
2019-03-15T14:28:09.333Z,934.53
2019-03-15T14:29:09.316Z,934.52
2019-03-15T14:30:09.340Z,934.49
2019-03-15T14:31:09.301Z,934.49
2019-03-15T14:32:09.324Z,934.50
2019-03-15T14:33:09.301Z,934.46
2019-03-15T14:34:09.321Z,934.43
2019-03-15T14:35:09.323Z,934.44
2019-03-15T14:36:09.337Z,934.42
2019-03-15T14:37:10.417Z,934.41
2019-03-15T14:38:09.483Z,934.37
2019-03-15T14:39:09.365Z,934.41
2019-03-15T14:40:09.414Z,934.36
2019-03-15T14:41:09.324Z,934.37
2019-03-15T14:42:09.344Z,934.37
2019-03-15T14:43:09.287Z,934.33
2019-03-15T14:44:09.474Z,934.33
2019-03-15T14:45:09.454Z,934.32
2019-03-15T14:46:12.069Z,934.34
2019-03-15T14:47:09.273Z,934.32
2019-03-15T14:48:09.258Z,934.35
2019-03-15T14:49:09.250Z,934.32
2019-03-15T14:50:09.300Z,934.35
2019-03-15T14:51:09.271Z,934.30
2019-03-15T14:52:09.246Z,934.25
2019-03-15T14:53:09.256Z,934.25
2019-03-15T14:54:09.287Z,934.25
2019-03-15T14:55:09.311Z,934.23
2019-03-15T14:56:09.286Z,934.24
2019-03-15T14:57:09.245Z,934.18
2019-03-15T14:58:09.249Z,934.13
2019-03-15T14:59:09.251Z,934.11
2019-03-15T15:00:11.089Z,934.10
2019-03-15T15:01:09.282Z,934.07
2019-03-15T15:02:09.219Z,934.03
2019-03-15T15:03:09.234Z,934.04
2019-03-15T15:04:09.233Z,934.04
2019-03-15T15:05:09.235Z,934.02
2019-03-15T15:06:09.233Z,934.01
2019-03-15T15:07:09.229Z,934.00
2019-03-15T15:08:09.248Z,933.94
2019-03-15T15:09:09.207Z,934.01
2019-03-15T15:10:09.195Z,933.96
2019-03-15T15:11:09.198Z,933.93
2019-03-15T15:12:09.250Z,933.93
2019-03-15T15:13:09.205Z,933.90
2019-03-15T15:14:09.239Z,933.90
2019-03-15T15:15:09.176Z,933.83
2019-03-15T15:16:09.183Z,933.78
2019-03-15T15:17:09.182Z,933.74
2019-03-15T15:18:09.216Z,933.77
2019-03-15T15:19:09.185Z,933.76
2019-03-15T15:20:09.188Z,933.71
2019-03-15T15:21:09.186Z,933.75
2019-03-15T15:22:09.176Z,933.70
2019-03-15T15:23:09.180Z,933.71
2019-03-15T15:24:11.003Z,933.69
2019-03-15T15:25:09.170Z,933.66
2019-03-15T15:26:09.167Z,933.63
2019-03-15T15:27:09.172Z,933.58
2019-03-15T15:28:09.149Z,933.61
2019-03-15T15:29:09.189Z,933.58
2019-03-15T15:30:09.344Z,933.55
2019-03-15T15:31:09.141Z,933.53
2019-03-15T15:32:09.145Z,933.55
2019-03-15T15:33:09.191Z,933.56
2019-03-15T15:34:09.127Z,933.54
2019-03-15T15:35:09.134Z,933.60
2019-03-15T15:36:09.137Z,933.57
2019-03-15T15:37:09.129Z,933.49
2019-03-15T15:38:09.138Z,933.53
2019-03-15T15:39:09.212Z,933.49
2019-03-15T15:40:09.123Z,933.45
2019-03-15T15:41:09.130Z,933.45
2019-03-15T15:42:09.118Z,933.37
2019-03-15T15:43:09.133Z,933.41
2019-03-15T15:44:09.103Z,933.36
2019-03-15T15:45:09.097Z,933.33
2019-03-15T15:46:09.119Z,933.31
2019-03-15T15:47:09.093Z,933.27
2019-03-15T15:48:09.112Z,933.28
2019-03-15T15:49:09.105Z,933.24
2019-03-15T15:50:09.107Z,933.22
2019-03-15T15:51:09.093Z,933.21
2019-03-15T15:52:09.076Z,933.18
2019-03-15T15:53:11.006Z,933.19
2019-03-15T15:54:09.100Z,933.14
2019-03-15T15:55:09.090Z,933.14
2019-03-15T15:56:09.077Z,933.14
2019-03-15T15:57:09.086Z,933.18
2019-03-15T15:58:17.742Z,933.16
2019-03-15T15:59:09.092Z,933.22
2019-03-15T16:00:09.079Z,933.19
2019-03-15T16:01:09.081Z,933.23
2019-03-15T16:02:09.086Z,933.19
2019-03-15T16:03:09.079Z,933.20
2019-03-15T16:04:09.124Z,933.22
2019-03-15T16:05:09.060Z,933.18
2019-03-15T16:06:09.060Z,933.21
2019-03-15T16:07:09.060Z,933.22
2019-03-15T16:08:09.057Z,933.21
2019-03-15T16:09:09.070Z,933.17
2019-03-15T16:10:09.060Z,933.15
2019-03-15T16:11:09.048Z,933.11
2019-03-15T16:12:09.045Z,933.08
2019-03-15T16:13:17.253Z,933.04
2019-03-15T16:14:09.044Z,933.07
2019-03-15T16:15:09.017Z,933.04
2019-03-15T16:16:09.029Z,932.99
2019-03-15T16:17:09.035Z,932.99
2019-03-15T16:18:09.037Z,933.03
2019-03-15T16:19:09.041Z,933.02
2019-03-15T16:20:09.019Z,933.08
2019-03-15T16:21:09.028Z,933.05
2019-03-15T16:22:09.053Z,933.03
2019-03-15T16:23:09.007Z,933.03
2019-03-15T16:24:09.054Z,933.00
2019-03-15T16:25:09.021Z,933.02
2019-03-15T16:26:09.013Z,933.02
2019-03-15T16:27:09.013Z,933.00
2019-03-15T16:28:09.002Z,932.97
2019-03-15T16:29:08.996Z,932.97
2019-03-15T16:30:08.982Z,932.94
2019-03-15T16:31:08.991Z,932.94
2019-03-15T16:32:08.993Z,932.91
2019-03-15T16:33:08.989Z,932.90
2019-03-15T16:34:09.008Z,932.92
2019-03-15T16:35:09.020Z,932.87
2019-03-15T16:36:08.977Z,932.87
2019-03-15T16:37:08.974Z,932.84
2019-03-15T16:38:08.978Z,932.80
2019-03-15T16:39:08.959Z,932.84
2019-03-15T16:40:08.966Z,932.77
2019-03-15T16:41:08.959Z,932.75
2019-03-15T16:42:08.958Z,932.73
2019-03-15T16:43:08.942Z,932.71
2019-03-15T16:44:08.949Z,932.72
2019-03-15T16:45:08.963Z,932.72
2019-03-15T16:46:08.925Z,932.64
2019-03-15T16:47:08.983Z,932.61
2019-03-15T16:48:08.942Z,932.59
2019-03-15T16:49:08.929Z,932.60
2019-03-15T16:50:08.914Z,932.61
2019-03-15T16:51:19.039Z,932.56
2019-03-15T16:52:08.937Z,932.56
2019-03-15T16:53:08.940Z,932.50
2019-03-15T16:54:08.920Z,932.49
2019-03-15T16:55:08.933Z,932.43
2019-03-15T16:56:08.934Z,932.42
2019-03-15T16:57:08.899Z,932.42
2019-03-15T16:58:08.922Z,932.42
2019-03-15T16:59:08.916Z,932.32
2019-03-15T17:00:08.896Z,932.37
2019-03-15T17:01:08.907Z,932.35
2019-03-15T17:02:08.919Z,932.38
2019-03-15T17:03:08.909Z,932.39
2019-03-15T17:04:08.882Z,932.36
2019-03-15T17:05:08.897Z,932.40
2019-03-15T17:06:08.877Z,932.35
2019-03-15T17:07:08.883Z,932.37
2019-03-15T17:08:08.886Z,932.38
2019-03-15T17:09:08.862Z,932.40
2019-03-15T17:10:08.883Z,932.36
2019-03-15T17:11:08.855Z,932.35
2019-03-15T17:12:08.849Z,932.36
2019-03-15T17:13:08.876Z,932.35
2019-03-15T17:14:08.843Z,932.39
2019-03-15T17:15:08.857Z,932.28
2019-03-15T17:16:08.905Z,932.31
2019-03-15T17:17:08.883Z,932.29
2019-03-15T17:18:08.823Z,932.30
2019-03-15T17:19:08.846Z,932.27
2019-03-15T17:20:08.830Z,932.29
2019-03-15T17:21:08.849Z,932.26
2019-03-15T17:22:08.839Z,932.25
2019-03-15T17:23:08.831Z,932.26
2019-03-15T17:24:08.812Z,932.24
2019-03-15T17:25:08.822Z,932.20
2019-03-15T17:26:08.852Z,932.21
2019-03-15T17:27:08.867Z,932.18
2019-03-15T17:28:08.816Z,932.23
2019-03-15T17:29:08.822Z,932.28
2019-03-15T17:30:08.845Z,932.22
2019-03-15T17:31:10.121Z,932.20
2019-03-15T17:32:08.800Z,932.15
2019-03-15T17:33:08.842Z,932.19
2019-03-15T17:34:08.803Z,932.16
2019-03-15T17:35:08.863Z,932.18
2019-03-15T17:36:08.775Z,932.15
2019-03-15T17:37:08.791Z,932.11
2019-03-15T17:38:08.783Z,932.14
2019-03-15T17:39:08.789Z,932.12
2019-03-15T17:40:08.781Z,932.12
2019-03-15T17:41:08.777Z,932.07
2019-03-15T17:42:08.741Z,932.17
2019-03-15T17:43:08.767Z,932.17
2019-03-15T17:44:08.754Z,932.14
2019-03-15T17:45:08.802Z,932.10
2019-03-15T17:46:08.760Z,932.12
2019-03-15T17:47:08.790Z,932.13
2019-03-15T17:48:08.749Z,932.17
2019-03-15T17:49:08.729Z,932.14
2019-03-15T17:50:08.749Z,932.22
2019-03-15T17:51:08.768Z,932.18
2019-03-15T17:52:08.729Z,932.20
2019-03-15T17:53:08.725Z,932.21
2019-03-15T17:54:08.720Z,932.21
2019-03-15T17:55:08.707Z,932.24
2019-03-15T17:56:08.759Z,932.24
2019-03-15T17:57:08.693Z,932.23
2019-03-15T17:58:08.709Z,932.22
2019-03-15T17:59:12.566Z,932.25
2019-03-15T18:00:08.715Z,932.23
2019-03-15T18:01:08.733Z,932.26
2019-03-15T18:02:08.686Z,932.25
2019-03-15T18:03:20.204Z,932.26
2019-03-15T18:04:08.789Z,932.23
2019-03-15T18:05:08.671Z,932.24
2019-03-15T18:06:08.671Z,932.21
2019-03-15T18:07:08.679Z,932.22
2019-03-15T18:08:08.646Z,932.20
2019-03-15T18:09:08.667Z,932.18
2019-03-15T18:10:08.668Z,932.17
2019-03-15T18:11:08.638Z,932.16
2019-03-15T18:12:08.645Z,932.20
2019-03-15T18:13:08.655Z,932.31
2019-03-15T18:14:08.649Z,932.21
2019-03-15T18:15:08.654Z,932.23
2019-03-15T18:16:08.634Z,932.28
2019-03-15T18:17:08.665Z,932.27
2019-03-15T18:18:08.621Z,932.23
2019-03-15T18:19:08.665Z,932.22
2019-03-15T18:20:08.622Z,932.21
2019-03-15T18:21:08.599Z,932.25
2019-03-15T18:22:08.603Z,932.28
2019-03-15T18:23:08.617Z,932.28
2019-03-15T18:24:08.604Z,932.27
2019-03-15T18:25:08.587Z,932.33
2019-03-15T18:26:08.572Z,932.30
2019-03-15T18:27:08.584Z,932.35
2019-03-15T18:28:08.585Z,932.36
2019-03-15T18:29:08.564Z,932.28
2019-03-15T18:30:08.553Z,932.32
2019-03-15T18:31:08.569Z,932.34
2019-03-15T18:32:08.550Z,932.28
2019-03-15T18:33:08.549Z,932.33
2019-03-15T18:34:08.523Z,932.31
2019-03-15T18:35:08.517Z,932.30
2019-03-15T18:36:08.538Z,932.26
2019-03-15T18:37:08.511Z,932.30
2019-03-15T18:38:08.527Z,932.25
2019-03-15T18:39:08.510Z,932.25
2019-03-15T18:40:08.579Z,932.31
2019-03-15T18:41:08.502Z,932.28
2019-03-15T18:42:08.490Z,932.30
2019-03-15T18:43:08.495Z,932.24
2019-03-15T18:44:08.486Z,932.25
2019-03-15T18:45:08.493Z,932.24
2019-03-15T18:46:08.496Z,932.22
2019-03-15T18:47:08.443Z,932.20
2019-03-15T18:48:08.463Z,932.23
2019-03-15T18:49:08.436Z,932.19
2019-03-15T18:50:08.432Z,932.22
2019-03-15T18:51:08.427Z,932.18
2019-03-15T18:52:08.439Z,932.18
2019-03-15T18:53:08.438Z,932.17
2019-03-15T18:54:17.516Z,932.18
2019-03-15T18:55:08.416Z,932.20
2019-03-15T18:56:08.414Z,932.14
2019-03-15T18:57:08.392Z,932.16
2019-03-15T18:58:08.452Z,932.08
2019-03-15T18:59:08.521Z,932.08
2019-03-15T19:00:08.397Z,932.05
2019-03-15T19:01:08.388Z,932.02
2019-03-15T19:02:08.378Z,932.00
2019-03-15T19:03:08.376Z,932.03
2019-03-15T19:04:08.410Z,931.97
2019-03-15T19:05:08.368Z,931.96
2019-03-15T19:06:08.388Z,931.94
2019-03-15T19:07:08.382Z,931.93
2019-03-15T19:08:08.333Z,931.93
2019-03-15T19:09:08.353Z,931.98
2019-03-15T19:10:08.334Z,931.92
2019-03-15T19:11:08.331Z,931.94
2019-03-15T19:12:08.310Z,931.89
2019-03-15T19:13:08.324Z,931.90
2019-03-15T19:14:08.315Z,931.94
2019-03-15T19:15:08.314Z,931.93
2019-03-15T19:16:19.505Z,931.96
2019-03-15T19:17:08.301Z,931.96
2019-03-15T19:18:08.273Z,931.98
2019-03-15T19:19:08.337Z,931.94
2019-03-15T19:20:08.258Z,931.97
2019-03-15T19:21:08.309Z,931.94
2019-03-15T19:22:08.264Z,931.97
2019-03-15T19:23:08.302Z,931.97
2019-03-15T19:24:08.251Z,932.02
2019-03-15T19:25:08.246Z,931.98
2019-03-15T19:26:08.223Z,932.00
2019-03-15T19:27:08.217Z,932.01
2019-03-15T19:28:08.231Z,932.08
2019-03-15T19:29:08.272Z,932.06
2019-03-15T19:30:08.221Z,932.03
2019-03-15T19:31:08.219Z,932.06
2019-03-15T19:32:08.214Z,932.03
2019-03-15T19:33:08.219Z,932.02
2019-03-15T19:34:08.202Z,932.08
2019-03-15T19:35:08.191Z,932.04
2019-03-15T19:36:08.183Z,932.05
2019-03-15T19:37:08.174Z,932.06
2019-03-15T19:38:08.179Z,932.11
2019-03-15T19:39:08.174Z,932.08
2019-03-15T19:40:08.133Z,932.16
2019-03-15T19:41:08.155Z,932.17
2019-03-15T19:42:08.149Z,932.17
2019-03-15T19:43:08.128Z,932.18
2019-03-15T19:44:08.147Z,932.21
2019-03-15T19:45:08.172Z,932.23
2019-03-15T19:46:08.127Z,932.26
2019-03-15T19:47:08.127Z,932.27
2019-03-15T19:48:08.125Z,932.24
2019-03-15T19:49:08.140Z,932.30
2019-03-15T19:50:08.081Z,932.34
2019-03-15T19:51:08.085Z,932.33
2019-03-15T19:52:08.083Z,932.31
2019-03-15T19:53:08.072Z,932.36
2019-03-15T19:54:08.069Z,932.38
2019-03-15T19:55:08.072Z,932.39
2019-03-15T19:56:08.066Z,932.41
2019-03-15T19:57:08.043Z,932.41
2019-03-15T19:58:08.052Z,932.43
2019-03-15T19:59:08.036Z,932.45
2019-03-15T20:00:08.753Z,932.44
2019-03-15T20:01:08.029Z,932.45
2019-03-15T20:02:08.045Z,932.41
2019-03-15T20:03:08.032Z,932.44
2019-03-15T20:04:07.995Z,932.51
2019-03-15T20:05:08.001Z,932.48
2019-03-15T20:06:07.993Z,932.46
2019-03-15T20:07:07.991Z,932.49
2019-03-15T20:08:07.994Z,932.47
2019-03-15T20:09:07.984Z,932.50
2019-03-15T20:10:07.964Z,932.50
2019-03-15T20:11:07.981Z,932.62
2019-03-15T20:12:07.965Z,932.62
2019-03-15T20:13:07.948Z,932.67
2019-03-15T20:14:07.966Z,932.65
2019-03-15T20:15:07.963Z,932.68
2019-03-15T20:16:07.935Z,932.69
2019-03-15T20:17:07.975Z,932.70
2019-03-15T20:18:07.918Z,932.74
2019-03-15T20:19:07.967Z,932.73
2019-03-15T20:20:07.912Z,932.77
2019-03-15T20:21:07.948Z,932.76
2019-03-15T20:22:07.913Z,932.79
2019-03-15T20:23:07.920Z,932.80
2019-03-15T20:24:07.903Z,932.84
2019-03-15T20:25:07.895Z,932.86
2019-03-15T20:26:07.898Z,932.86
2019-03-15T20:27:07.891Z,932.89
2019-03-15T20:28:07.873Z,932.89
2019-03-15T20:29:07.875Z,932.89
2019-03-15T20:30:20.204Z,932.87
2019-03-15T20:31:07.844Z,932.90
2019-03-15T20:32:07.845Z,932.89
2019-03-15T20:33:07.855Z,932.90
2019-03-15T20:34:07.838Z,932.89
2019-03-15T20:35:07.843Z,932.90
2019-03-15T20:36:07.861Z,932.94
2019-03-15T20:37:07.834Z,932.93
2019-03-15T20:38:07.822Z,932.93
2019-03-15T20:39:07.808Z,932.90
2019-03-15T20:40:07.788Z,932.91
2019-03-15T20:41:07.804Z,932.95
2019-03-15T20:42:07.787Z,932.95
2019-03-15T20:43:07.770Z,932.98
2019-03-15T20:44:07.870Z,933.01
2019-03-15T20:45:07.764Z,932.99
2019-03-15T20:46:07.773Z,933.01
2019-03-15T20:47:07.811Z,933.02
2019-03-15T20:48:07.763Z,933.00
2019-03-15T20:49:07.759Z,933.03
2019-03-15T20:50:07.736Z,933.00
2019-03-15T20:51:07.745Z,932.99
2019-03-15T20:52:07.738Z,932.94
2019-03-15T20:53:12.540Z,932.97
2019-03-15T20:54:07.801Z,932.99
2019-03-15T20:55:07.711Z,933.00
2019-03-15T20:56:07.704Z,933.10
2019-03-15T20:57:07.721Z,933.04
2019-03-15T20:58:07.703Z,933.05
2019-03-15T20:59:07.674Z,933.12
2019-03-15T21:00:07.723Z,933.14
2019-03-15T21:01:07.684Z,933.14
2019-03-15T21:02:07.680Z,933.15
2019-03-15T21:03:07.730Z,933.18
2019-03-15T21:04:07.660Z,933.18
2019-03-15T21:05:08.184Z,933.18
2019-03-15T21:06:07.694Z,933.15
2019-03-15T21:07:07.646Z,933.19
2019-03-15T21:08:07.646Z,933.19
2019-03-15T21:09:07.625Z,933.22
2019-03-15T21:10:07.619Z,933.25
2019-03-15T21:11:07.628Z,933.27
2019-03-15T21:12:07.616Z,933.27
2019-03-15T21:13:07.601Z,933.32
2019-03-15T21:14:07.605Z,933.28
2019-03-15T21:15:07.700Z,933.30
2019-03-15T21:16:07.581Z,933.31
2019-03-15T21:17:07.603Z,933.35
2019-03-15T21:18:07.561Z,933.36
2019-03-15T21:19:07.568Z,933.39
2019-03-15T21:20:07.566Z,933.38
2019-03-15T21:21:07.706Z,933.42
2019-03-15T21:22:07.544Z,933.45
2019-03-15T21:23:07.545Z,933.51
2019-03-15T21:24:07.528Z,933.46
2019-03-15T21:25:07.540Z,933.51
2019-03-15T21:26:07.509Z,933.51
2019-03-15T21:27:07.509Z,933.54
2019-03-15T21:28:07.515Z,933.52
2019-03-15T21:29:07.496Z,933.53
2019-03-15T21:30:07.499Z,933.50
2019-03-15T21:31:07.497Z,933.58
2019-03-15T21:32:07.575Z,933.56
2019-03-15T21:33:07.479Z,933.57
2019-03-15T21:34:07.470Z,933.58
2019-03-15T21:35:07.452Z,933.64
2019-03-15T21:36:07.438Z,933.64
2019-03-15T21:37:07.458Z,933.62
2019-03-15T21:38:07.448Z,933.63
2019-03-15T21:39:07.426Z,933.64
2019-03-15T21:40:07.426Z,933.64
2019-03-15T21:41:07.420Z,933.69
2019-03-15T21:42:07.419Z,933.71
2019-03-15T21:43:07.390Z,933.67
2019-03-15T21:44:07.438Z,933.66
2019-03-15T21:45:07.379Z,933.68
2019-03-15T21:46:07.394Z,933.70
2019-03-15T21:47:07.367Z,933.71
2019-03-15T21:48:07.371Z,933.69
2019-03-15T21:49:07.364Z,933.69
2019-03-15T21:50:07.342Z,933.70
2019-03-15T21:51:07.358Z,933.71
2019-03-15T21:52:07.326Z,933.76
2019-03-15T21:53:07.343Z,933.73
2019-03-15T21:54:07.337Z,933.74
2019-03-15T21:55:07.316Z,933.75
2019-03-15T21:56:07.320Z,933.72
2019-03-15T21:57:07.307Z,933.74
2019-03-15T21:58:07.308Z,933.76
2019-03-15T21:59:07.284Z,933.73
2019-03-15T22:00:07.298Z,933.73
2019-03-15T22:01:07.283Z,933.70
2019-03-15T22:02:07.271Z,933.71
2019-03-15T22:03:07.271Z,933.71
2019-03-15T22:04:07.257Z,933.68
2019-03-15T22:05:07.231Z,933.70
2019-03-15T22:06:07.284Z,933.72
2019-03-15T22:07:07.246Z,933.70
2019-03-15T22:08:07.231Z,933.72
2019-03-15T22:09:07.216Z,933.72
2019-03-15T22:10:07.218Z,933.77
2019-03-15T22:11:20.193Z,933.75
2019-03-15T22:12:07.197Z,933.75
2019-03-15T22:13:07.187Z,933.78
2019-03-15T22:14:07.237Z,933.80
2019-03-15T22:15:07.563Z,933.82
2019-03-15T22:16:07.174Z,933.86
2019-03-15T22:17:07.159Z,933.89
2019-03-15T22:18:07.149Z,933.88
2019-03-15T22:19:07.146Z,933.91
2019-03-15T22:20:07.160Z,933.90
2019-03-15T22:21:07.145Z,933.93
2019-03-15T22:22:07.269Z,933.92
2019-03-15T22:23:07.132Z,933.91
2019-03-15T22:24:07.124Z,933.94
2019-03-15T22:25:07.112Z,933.95
2019-03-15T22:26:07.165Z,933.94
2019-03-15T22:27:07.112Z,933.94
2019-03-15T22:28:07.086Z,933.93
2019-03-15T22:29:07.100Z,933.92
2019-03-15T22:30:07.095Z,933.91
2019-03-15T22:31:16.604Z,933.95
2019-03-15T22:32:07.057Z,933.90
2019-03-15T22:33:07.078Z,933.95
2019-03-15T22:34:07.046Z,933.94
2019-03-15T22:35:07.062Z,934.00
2019-03-15T22:36:07.150Z,934.00
2019-03-15T22:37:07.045Z,934.00
2019-03-15T22:38:07.060Z,934.04
2019-03-15T22:39:07.028Z,934.02
2019-03-15T22:40:07.015Z,934.04
2019-03-15T22:41:07.046Z,934.01
2019-03-15T22:42:07.046Z,933.99
2019-03-15T22:43:07.001Z,934.01
2019-03-15T22:44:06.991Z,934.02
2019-03-15T22:45:06.983Z,934.00
2019-03-15T22:46:06.952Z,933.99
2019-03-15T22:47:07.017Z,933.99
2019-03-15T22:48:06.964Z,933.96
2019-03-15T22:49:06.960Z,933.99
2019-03-15T22:50:06.990Z,933.97
2019-03-15T22:51:06.979Z,933.99
2019-03-15T22:52:06.950Z,934.02
2019-03-15T22:53:06.939Z,934.03
2019-03-15T22:54:06.916Z,934.10
2019-03-15T22:55:06.909Z,934.10
2019-03-15T22:56:07.004Z,934.10
2019-03-15T22:57:06.891Z,934.15
2019-03-15T22:58:06.937Z,934.17
2019-03-15T22:59:06.896Z,934.16
2019-03-15T23:00:06.883Z,934.17
2019-03-15T23:01:06.868Z,934.12
2019-03-15T23:02:06.854Z,934.14
2019-03-15T23:03:06.887Z,934.13
2019-03-15T23:04:06.903Z,934.10
2019-03-15T23:05:06.840Z,934.17
2019-03-15T23:06:06.833Z,934.12
2019-03-15T23:07:06.815Z,934.10
2019-03-15T23:08:06.821Z,934.12
2019-03-15T23:09:06.830Z,934.08
2019-03-15T23:10:06.805Z,934.07
2019-03-15T23:11:06.814Z,934.12
2019-03-15T23:12:06.797Z,934.07
2019-03-15T23:13:06.808Z,934.07
2019-03-15T23:14:06.768Z,934.08
2019-03-15T23:15:06.768Z,934.06
2019-03-15T23:16:06.817Z,934.06
2019-03-15T23:17:06.782Z,934.04
2019-03-15T23:18:06.745Z,933.99
2019-03-15T23:19:06.735Z,934.00
2019-03-15T23:20:06.750Z,933.96
2019-03-15T23:21:06.738Z,933.94
2019-03-15T23:22:06.717Z,933.97
2019-03-15T23:23:06.718Z,933.93
2019-03-15T23:24:06.699Z,933.97
2019-03-15T23:25:06.715Z,933.93
2019-03-15T23:26:06.793Z,933.92
2019-03-15T23:27:06.700Z,933.97
2019-03-15T23:28:06.697Z,934.00
2019-03-15T23:29:06.724Z,934.04
2019-03-15T23:30:06.679Z,934.07
2019-03-15T23:31:06.685Z,934.07
2019-03-15T23:32:06.722Z,934.07
2019-03-15T23:33:06.638Z,934.06
2019-03-15T23:34:06.659Z,934.09
2019-03-15T23:35:06.641Z,934.07
2019-03-15T23:36:06.617Z,934.07
2019-03-15T23:37:06.624Z,934.07
2019-03-15T23:38:06.682Z,934.09
2019-03-15T23:39:06.607Z,934.11
2019-03-15T23:40:06.601Z,934.12
2019-03-15T23:41:06.605Z,934.12
2019-03-15T23:42:06.592Z,934.13
2019-03-15T23:43:06.579Z,934.13
2019-03-15T23:44:06.583Z,934.09
2019-03-15T23:45:06.621Z,934.16
2019-03-15T23:46:06.557Z,934.18
2019-03-15T23:47:06.553Z,934.15
2019-03-15T23:48:06.566Z,934.19
2019-03-15T23:49:06.557Z,934.15
2019-03-15T23:50:06.545Z,934.17
2019-03-15T23:51:06.531Z,934.14
2019-03-15T23:52:06.527Z,934.16
2019-03-15T23:53:06.560Z,934.17
2019-03-15T23:54:06.521Z,934.15
2019-03-15T23:55:06.518Z,934.16
2019-03-15T23:56:06.491Z,934.13
2019-03-15T23:57:06.485Z,934.13
2019-03-15T23:58:06.465Z,934.15
2019-03-15T23:59:06.491Z,934.17
